sensor_id;sensor_type;location;lat;lon;timestamp;pressure;altitude;pressure_sealevel;temperature;humidity
68871;BME280;55906;52.278;6.808;2023-01-31T00:00:49;102233.19;;;4.60;83.11
68871;BME280;55906;52.278;6.808;2023-01-31T00:03:16;102221.16;;;4.62;83.14
68871;BME280;55906;52.278;6.808;2023-01-31T00:05:43;102220.16;;;4.60;83.55
68871;BME280;55906;52.278;6.808;2023-01-31T00:08:09;102216.66;;;4.59;83.50
68871;BME280;55906;52.278;6.808;2023-01-31T00:10:39;102219.94;;;4.57;83.77
68871;BME280;55906;52.278;6.808;2023-01-31T00:13:06;102218.81;;;4.53;82.91
68871;BME280;55906;52.278;6.808;2023-01-31T00:15:33;102220.28;;;4.49;83.55
68871;BME280;55906;52.278;6.808;2023-01-31T00:17:59;102221.88;;;4.47;83.34
68871;BME280;55906;52.278;6.808;2023-01-31T00:20:26;102216.44;;;4.44;83.65
68871;BME280;55906;52.278;6.808;2023-01-31T00:22:52;102215.31;;;4.41;83.66
68871;BME280;55906;52.278;6.808;2023-01-31T00:25:19;102207.19;;;4.36;83.53
68871;BME280;55906;52.278;6.808;2023-01-31T00:27:47;102212.16;;;4.33;83.73
68871;BME280;55906;52.278;6.808;2023-01-31T00:30:14;102208.56;;;4.31;83.78
68871;BME280;55906;52.278;6.808;2023-01-31T00:32:40;102213.09;;;4.22;84.27
68871;BME280;55906;52.278;6.808;2023-01-31T00:35:07;102213.78;;;4.20;84.14
68871;BME280;55906;52.278;6.808;2023-01-31T00:37:34;102213.78;;;4.08;84.92
68871;BME280;55906;52.278;6.808;2023-01-31T00:40:01;102213.56;;;4.05;84.69
68871;BME280;55906;52.278;6.808;2023-01-31T00:42:28;102206.88;;;4.08;84.80
68871;BME280;55906;52.278;6.808;2023-01-31T00:44:56;102211.75;;;4.04;84.52
68871;BME280;55906;52.278;6.808;2023-01-31T00:47:23;102207.22;;;4.01;84.88
68871;BME280;55906;52.278;6.808;2023-01-31T00:49:49;102208.13;;;4.02;84.63
68871;BME280;55906;52.278;6.808;2023-01-31T00:52:16;102220.13;;;4.00;84.40
68871;BME280;55906;52.278;6.808;2023-01-31T00:54:43;102211.88;;;3.94;85.27
68871;BME280;55906;52.278;6.808;2023-01-31T00:57:09;102212.66;;;3.93;85.02
68871;BME280;55906;52.278;6.808;2023-01-31T00:59:36;102209.25;;;3.94;84.83
68871;BME280;55906;52.278;6.808;2023-01-31T01:02:04;102219.44;;;3.91;84.96
68871;BME280;55906;52.278;6.808;2023-01-31T01:04:30;102214.78;;;3.86;85.21
68871;BME280;55906;52.278;6.808;2023-01-31T01:06:57;102206.72;;;3.83;84.88
68871;BME280;55906;52.278;6.808;2023-01-31T01:09:24;102212.50;;;3.79;85.04
68871;BME280;55906;52.278;6.808;2023-01-31T01:11:50;102218.28;;;3.75;85.51
68871;BME280;55906;52.278;6.808;2023-01-31T01:14:17;102205.16;;;3.74;85.27
68871;BME280;55906;52.278;6.808;2023-01-31T01:16:43;102198.81;;;3.70;85.16
68871;BME280;55906;52.278;6.808;2023-01-31T01:19:15;102194.50;;;3.71;85.78
68871;BME280;55906;52.278;6.808;2023-01-31T01:21:42;102200.38;;;3.68;85.85
68871;BME280;55906;52.278;6.808;2023-01-31T01:24:13;102200.63;;;3.71;85.43
68871;BME280;55906;52.278;6.808;2023-01-31T01:26:40;102202.41;;;3.61;86.29
68871;BME280;55906;52.278;6.808;2023-01-31T01:29:07;102204.47;;;3.65;86.48
68871;BME280;55906;52.278;6.808;2023-01-31T01:31:36;102198.56;;;3.67;86.33
68871;BME280;55906;52.278;6.808;2023-01-31T01:34:04;102202.88;;;3.67;86.05
68871;BME280;55906;52.278;6.808;2023-01-31T01:36:33;102213.41;;;3.68;85.66
68871;BME280;55906;52.278;6.808;2023-01-31T01:39:01;102204.00;;;3.70;85.25
68871;BME280;55906;52.278;6.808;2023-01-31T01:41:29;102215.09;;;3.68;85.86
68871;BME280;55906;52.278;6.808;2023-01-31T01:43:58;102217.59;;;3.66;85.89
68871;BME280;55906;52.278;6.808;2023-01-31T01:46:27;102222.78;;;3.66;85.53
68871;BME280;55906;52.278;6.808;2023-01-31T01:48:57;102238.16;;;3.63;85.95
68871;BME280;55906;52.278;6.808;2023-01-31T01:51:25;102232.72;;;3.60;85.91
68871;BME280;55906;52.278;6.808;2023-01-31T01:53:56;102237.94;;;3.60;85.71
68871;BME280;55906;52.278;6.808;2023-01-31T01:56:27;102236.78;;;3.57;86.07
68871;BME280;55906;52.278;6.808;2023-01-31T01:59:02;102242.69;;;3.54;86.03
68871;BME280;55906;52.278;6.808;2023-01-31T02:01:33;102245.84;;;3.50;85.98
68871;BME280;55906;52.278;6.808;2023-01-31T02:04:01;102246.50;;;3.47;86.07
68871;BME280;55906;52.278;6.808;2023-01-31T02:06:28;102249.66;;;3.43;86.77
68871;BME280;55906;52.278;6.808;2023-01-31T02:08:57;102252.63;;;3.48;86.62
68871;BME280;55906;52.278;6.808;2023-01-31T02:11:26;102258.41;;;3.56;86.47
68871;BME280;55906;52.278;6.808;2023-01-31T02:13:58;102249.69;;;3.55;86.50
68871;BME280;55906;52.278;6.808;2023-01-31T02:16:26;102249.25;;;3.61;86.22
68871;BME280;55906;52.278;6.808;2023-01-31T02:18:53;102243.13;;;3.60;86.30
68871;BME280;55906;52.278;6.808;2023-01-31T02:24:42;102229.22;;;3.60;86.06
68871;BME280;55906;52.278;6.808;2023-01-31T02:27:30;102222.88;;;3.56;86.28
68871;BME280;55906;52.278;6.808;2023-01-31T02:30:29;102225.50;;;3.56;86.18
68871;BME280;55906;52.278;6.808;2023-01-31T02:33:07;102223.22;;;3.49;86.19
68871;BME280;55906;52.278;6.808;2023-01-31T02:35:48;102222.88;;;3.56;86.61
68871;BME280;55906;52.278;6.808;2023-01-31T02:38:28;102217.56;;;3.54;86.20
68871;BME280;55906;52.278;6.808;2023-01-31T02:41:03;102221.41;;;3.60;86.50
68871;BME280;55906;52.278;6.808;2023-01-31T02:43:38;102222.56;;;3.63;86.76
68871;BME280;55906;52.278;6.808;2023-01-31T02:46:24;102219.63;;;3.70;86.50
68871;BME280;55906;52.278;6.808;2023-01-31T02:49:02;102205.38;;;3.77;86.08
68871;BME280;55906;52.278;6.808;2023-01-31T02:51:34;102210.91;;;3.81;85.97
68871;BME280;55906;52.278;6.808;2023-01-31T02:54:08;102201.53;;;3.83;85.90
68871;BME280;55906;52.278;6.808;2023-01-31T02:56:38;102199.03;;;3.85;85.88
68871;BME280;55906;52.278;6.808;2023-01-31T02:59:09;102189.53;;;3.85;85.41
68871;BME280;55906;52.278;6.808;2023-01-31T03:01:39;102182.63;;;3.86;85.86
68871;BME280;55906;52.278;6.808;2023-01-31T03:04:11;102181.16;;;3.90;85.72
68871;BME280;55906;52.278;6.808;2023-01-31T03:06:57;102178.69;;;3.91;85.36
68871;BME280;55906;52.278;6.808;2023-01-31T03:09:34;102176.22;;;3.93;85.60
68871;BME280;55906;52.278;6.808;2023-01-31T03:12:21;102185.50;;;4.01;85.28
68871;BME280;55906;52.278;6.808;2023-01-31T03:15:02;102175.41;;;4.05;84.97
68871;BME280;55906;52.278;6.808;2023-01-31T03:17:41;102179.16;;;4.09;85.02
68871;BME280;55906;52.278;6.808;2023-01-31T03:20:18;102173.94;;;4.09;84.97
68871;BME280;55906;52.278;6.808;2023-01-31T03:22:50;102181.19;;;4.13;84.91
68871;BME280;55906;52.278;6.808;2023-01-31T03:25:20;102185.69;;;4.15;84.71
68871;BME280;55906;52.278;6.808;2023-01-31T03:27:51;102177.31;;;4.20;84.62
68871;BME280;55906;52.278;6.808;2023-01-31T03:30:24;102180.72;;;4.18;84.65
68871;BME280;55906;52.278;6.808;2023-01-31T03:32:54;102178.91;;;4.17;84.56
68871;BME280;55906;52.278;6.808;2023-01-31T03:35:26;102177.44;;;4.21;84.46
68871;BME280;55906;52.278;6.808;2023-01-31T03:37:59;102159.63;;;4.27;84.05
68871;BME280;55906;52.278;6.808;2023-01-31T03:40:33;102159.41;;;4.24;84.30
68871;BME280;55906;52.278;6.808;2023-01-31T03:43:08;102157.72;;;4.25;84.11
68871;BME280;55906;52.278;6.808;2023-01-31T03:45:41;102160.66;;;4.29;84.23
68871;BME280;55906;52.278;6.808;2023-01-31T03:48:12;102156.03;;;4.25;84.38
68871;BME280;55906;52.278;6.808;2023-01-31T03:50:48;102161.44;;;4.28;84.65
68871;BME280;55906;52.278;6.808;2023-01-31T03:53:19;102157.47;;;4.33;84.46
68871;BME280;55906;52.278;6.808;2023-01-31T03:55:51;102148.06;;;4.35;84.30
68871;BME280;55906;52.278;6.808;2023-01-31T03:58:23;102148.19;;;4.37;84.91
68871;BME280;55906;52.278;6.808;2023-01-31T04:00:51;102149.28;;;4.40;84.38
68871;BME280;55906;52.278;6.808;2023-01-31T04:03:25;102151.91;;;4.40;84.40
68871;BME280;55906;52.278;6.808;2023-01-31T04:05:54;102149.28;;;4.40;84.08
68871;BME280;55906;52.278;6.808;2023-01-31T04:08:21;102148.03;;;4.47;84.42
68871;BME280;55906;52.278;6.808;2023-01-31T04:10:48;102143.72;;;4.47;84.53
68871;BME280;55906;52.278;6.808;2023-01-31T04:13:15;102141.22;;;4.49;84.80
68871;BME280;55906;52.278;6.808;2023-01-31T04:15:42;102134.31;;;4.49;84.90
68871;BME280;55906;52.278;6.808;2023-01-31T04:18:09;102130.34;;;4.55;84.84
68871;BME280;55906;52.278;6.808;2023-01-31T04:20:35;102133.03;;;4.56;84.95
68871;BME280;55906;52.278;6.808;2023-01-31T04:23:03;102117.94;;;4.64;84.75
68871;BME280;55906;52.278;6.808;2023-01-31T04:25:30;102112.63;;;4.62;84.83
68871;BME280;55906;52.278;6.808;2023-01-31T04:27:57;102119.66;;;4.63;85.11
68871;BME280;55906;52.278;6.808;2023-01-31T04:30:23;102111.47;;;4.70;84.67
68871;BME280;55906;52.278;6.808;2023-01-31T04:32:50;102107.84;;;4.68;85.21
68871;BME280;55906;52.278;6.808;2023-01-31T04:35:16;102099.22;;;4.69;85.14
68871;BME280;55906;52.278;6.808;2023-01-31T04:37:43;102090.81;;;4.73;85.25
68871;BME280;55906;52.278;6.808;2023-01-31T04:40:12;102100.34;;;4.73;85.56
68871;BME280;55906;52.278;6.808;2023-01-31T04:42:39;102105.56;;;4.73;85.42
68871;BME280;55906;52.278;6.808;2023-01-31T04:45:07;102086.72;;;4.77;85.68
68871;BME280;55906;52.278;6.808;2023-01-31T04:47:34;102081.28;;;4.74;85.50
68871;BME280;55906;52.278;6.808;2023-01-31T04:50:00;102079.00;;;4.78;85.35
68871;BME280;55906;52.278;6.808;2023-01-31T04:52:27;102069.69;;;4.82;85.36
68871;BME280;55906;52.278;6.808;2023-01-31T04:54:53;102070.28;;;4.78;85.80
68871;BME280;55906;52.278;6.808;2023-01-31T04:57:21;102066.78;;;4.77;85.54
68871;BME280;55906;52.278;6.808;2023-01-31T04:59:48;102054.84;;;4.81;85.44
68871;BME280;55906;52.278;6.808;2023-01-31T05:02:16;102061.97;;;4.83;86.01
68871;BME280;55906;52.278;6.808;2023-01-31T05:04:43;102060.28;;;4.84;85.44
68871;BME280;55906;52.278;6.808;2023-01-31T05:07:09;102050.25;;;4.90;85.84
68871;BME280;55906;52.278;6.808;2023-01-31T05:09:36;102056.69;;;4.95;85.82
68871;BME280;55906;52.278;6.808;2023-01-31T05:12:03;102036.63;;;4.94;85.87
68871;BME280;55906;52.278;6.808;2023-01-31T05:14:32;102030.41;;;4.92;85.99
68871;BME280;55906;52.278;6.808;2023-01-31T05:16:58;102036.63;;;4.94;86.49
68871;BME280;55906;52.278;6.808;2023-01-31T05:19:26;102026.78;;;4.90;86.62
68871;BME280;55906;52.278;6.808;2023-01-31T05:21:52;102027.09;;;4.95;86.08
68871;BME280;55906;52.278;6.808;2023-01-31T05:24:25;102013.38;;;4.97;86.81
68871;BME280;55906;52.278;6.808;2023-01-31T05:26:52;102012.88;;;5.03;86.58
68871;BME280;55906;52.278;6.808;2023-01-31T05:29:23;102022.41;;;5.02;86.34
68871;BME280;55906;52.278;6.808;2023-01-31T05:31:51;102013.97;;;5.06;87.01
68871;BME280;55906;52.278;6.808;2023-01-31T05:34:18;102020.09;;;5.07;86.89
68871;BME280;55906;52.278;6.808;2023-01-31T05:36:45;102015.78;;;5.07;87.19
68871;BME280;55906;52.278;6.808;2023-01-31T05:39:12;102017.78;;;5.11;87.15
68871;BME280;55906;52.278;6.808;2023-01-31T05:41:38;102019.38;;;5.09;87.43
68871;BME280;55906;52.278;6.808;2023-01-31T05:44:05;102013.47;;;5.12;87.13
68871;BME280;55906;52.278;6.808;2023-01-31T05:46:32;102004.75;;;5.11;87.79
68871;BME280;55906;52.278;6.808;2023-01-31T05:49:00;102004.84;;;5.13;87.57
68871;BME280;55906;52.278;6.808;2023-01-31T05:51:26;102011.06;;;5.15;87.50
68871;BME280;55906;52.278;6.808;2023-01-31T05:53:53;102008.47;;;5.15;87.50
68871;BME280;55906;52.278;6.808;2023-01-31T05:56:20;102015.47;;;5.16;87.39
68871;BME280;55906;52.278;6.808;2023-01-31T05:58:46;102024.41;;;5.20;87.30
68871;BME280;55906;52.278;6.808;2023-01-31T06:01:15;102021.81;;;5.20;88.06
68871;BME280;55906;52.278;6.808;2023-01-31T06:03:41;102020.44;;;5.25;87.31
68871;BME280;55906;52.278;6.808;2023-01-31T06:06:09;102007.19;;;5.22;88.02
68871;BME280;55906;52.278;6.808;2023-01-31T06:08:36;102013.50;;;5.25;87.57
68871;BME280;55906;52.278;6.808;2023-01-31T06:11:03;102007.59;;;5.28;88.00
68871;BME280;55906;52.278;6.808;2023-01-31T06:13:30;102017.44;;;5.32;87.61
68871;BME280;55906;52.278;6.808;2023-01-31T06:15:57;102023.44;;;5.31;87.46
68871;BME280;55906;52.278;6.808;2023-01-31T06:18:23;102016.63;;;5.33;87.55
68871;BME280;55906;52.278;6.808;2023-01-31T06:20:50;102014.22;;;5.36;87.73
68871;BME280;55906;52.278;6.808;2023-01-31T06:23:18;102022.03;;;5.36;88.07
68871;BME280;55906;52.278;6.808;2023-01-31T06:25:48;102023.03;;;5.38;88.04
68871;BME280;55906;52.278;6.808;2023-01-31T06:28:14;102013.41;;;5.37;88.54
68871;BME280;55906;52.278;6.808;2023-01-31T06:30:41;102014.50;;;5.40;87.48
68871;BME280;55906;52.278;6.808;2023-01-31T06:33:08;102021.44;;;5.40;87.86
68871;BME280;55906;52.278;6.808;2023-01-31T06:35:34;102015.59;;;5.44;88.31
68871;BME280;55906;52.278;6.808;2023-01-31T06:38:01;102006.19;;;5.46;88.07
68871;BME280;55906;52.278;6.808;2023-01-31T06:40:29;101988.09;;;5.49;87.95
68871;BME280;55906;52.278;6.808;2023-01-31T06:42:56;101996.03;;;5.51;87.75
68871;BME280;55906;52.278;6.808;2023-01-31T06:45:22;101981.28;;;5.51;88.51
68871;BME280;55906;52.278;6.808;2023-01-31T06:47:49;101984.19;;;5.56;87.51
68871;BME280;55906;52.278;6.808;2023-01-31T06:50:17;102000.13;;;5.60;88.10
68871;BME280;55906;52.278;6.808;2023-01-31T06:52:43;101986.97;;;5.59;87.51
68871;BME280;55906;52.278;6.808;2023-01-31T06:55:10;101981.44;;;5.67;88.20
68871;BME280;55906;52.278;6.808;2023-01-31T06:57:44;101973.63;;;5.67;87.59
68871;BME280;55906;52.278;6.808;2023-01-31T07:00:12;101977.13;;;5.68;87.68
68871;BME280;55906;52.278;6.808;2023-01-31T07:02:39;101982.16;;;5.65;87.85
68871;BME280;55906;52.278;6.808;2023-01-31T07:05:06;101972.09;;;5.71;86.76
68871;BME280;55906;52.278;6.808;2023-01-31T07:07:33;101971.91;;;5.68;87.80
68871;BME280;55906;52.278;6.808;2023-01-31T07:10:00;101960.47;;;5.66;88.23
68871;BME280;55906;52.278;6.808;2023-01-31T07:12:26;101957.94;;;5.67;87.71
68871;BME280;55906;52.278;6.808;2023-01-31T07:14:54;101969.97;;;5.78;87.00
68871;BME280;55906;52.278;6.808;2023-01-31T07:17:21;101968.78;;;5.73;88.03
68871;BME280;55906;52.278;6.808;2023-01-31T07:19:48;101985.88;;;5.68;88.49
68871;BME280;55906;52.278;6.808;2023-01-31T07:22:14;101962.16;;;5.65;89.78
68871;BME280;55906;52.278;6.808;2023-01-31T07:24:41;101961.69;;;5.58;90.33
68871;BME280;55906;52.278;6.808;2023-01-31T07:27:08;101945.94;;;5.56;91.26
68871;BME280;55906;52.278;6.808;2023-01-31T07:29:34;101949.88;;;5.50;90.93
68871;BME280;55906;52.278;6.808;2023-01-31T07:32:03;101940.34;;;5.50;90.98
68871;BME280;55906;52.278;6.808;2023-01-31T07:34:29;101940.63;;;5.55;91.06
68871;BME280;55906;52.278;6.808;2023-01-31T07:36:56;101938.19;;;5.58;91.19
68871;BME280;55906;52.278;6.808;2023-01-31T07:39:25;101938.91;;;5.55;91.48
68871;BME280;55906;52.278;6.808;2023-01-31T07:41:52;101937.81;;;5.52;91.73
68871;BME280;55906;52.278;6.808;2023-01-31T07:44:18;101931.78;;;5.53;91.44
68871;BME280;55906;52.278;6.808;2023-01-31T07:46:45;101946.03;;;5.58;91.86
68871;BME280;55906;52.278;6.808;2023-01-31T07:49:14;101936.78;;;5.63;91.52
68871;BME280;55906;52.278;6.808;2023-01-31T07:51:40;101939.09;;;5.58;91.19
68871;BME280;55906;52.278;6.808;2023-01-31T07:54:08;101940.81;;;5.58;91.78
68871;BME280;55906;52.278;6.808;2023-01-31T07:56:36;101922.81;;;5.62;91.61
68871;BME280;55906;52.278;6.808;2023-01-31T07:59:03;101934.28;;;5.64;91.23
68871;BME280;55906;52.278;6.808;2023-01-31T08:01:29;101930.66;;;5.62;91.00
68871;BME280;55906;52.278;6.808;2023-01-31T08:04:15;101908.50;;;5.56;90.74
68871;BME280;55906;52.278;6.808;2023-01-31T08:06:43;101914.19;;;5.63;90.14
68871;BME280;55906;52.278;6.808;2023-01-31T08:09:10;101914.19;;;5.63;90.46
68871;BME280;55906;52.278;6.808;2023-01-31T08:11:37;101916.50;;;5.59;90.58
68871;BME280;55906;52.278;6.808;2023-01-31T08:14:04;101913.38;;;5.64;90.93
68871;BME280;55906;52.278;6.808;2023-01-31T08:16:33;101893.59;;;5.68;90.63
68871;BME280;55906;52.278;6.808;2023-01-31T08:19:00;101892.16;;;5.73;89.52
68871;BME280;55906;52.278;6.808;2023-01-31T08:21:28;101898.09;;;5.70;89.90
68871;BME280;55906;52.278;6.808;2023-01-31T08:23:55;101903.31;;;5.70;90.09
68871;BME280;55906;52.278;6.808;2023-01-31T08:26:22;101873.81;;;5.71;89.42
68871;BME280;55906;52.278;6.808;2023-01-31T08:28:50;101881.00;;;5.75;89.10
68871;BME280;55906;52.278;6.808;2023-01-31T08:31:20;101876.25;;;5.83;88.50
68871;BME280;55906;52.278;6.808;2023-01-31T08:33:46;101870.03;;;5.81;88.79
68871;BME280;55906;52.278;6.808;2023-01-31T08:36:17;101864.28;;;5.87;88.50
68871;BME280;55906;52.278;6.808;2023-01-31T08:38:45;101863.72;;;5.91;88.02
68871;BME280;55906;52.278;6.808;2023-01-31T08:41:12;101881.09;;;5.90;87.89
68871;BME280;55906;52.278;6.808;2023-01-31T08:43:39;101870.91;;;5.95;86.99
68871;BME280;55906;52.278;6.808;2023-01-31T08:46:06;101878.03;;;5.97;87.44
68871;BME280;55906;52.278;6.808;2023-01-31T08:48:33;101864.16;;;5.98;86.99
68871;BME280;55906;52.278;6.808;2023-01-31T08:51:00;101868.06;;;6.05;87.64
68871;BME280;55906;52.278;6.808;2023-01-31T08:53:27;101879.31;;;6.04;86.93
68871;BME280;55906;52.278;6.808;2023-01-31T08:55:58;101843.72;;;6.06;87.21
68871;BME280;55906;52.278;6.808;2023-01-31T08:58:25;101852.28;;;6.03;86.69
68871;BME280;55906;52.278;6.808;2023-01-31T09:00:52;101841.31;;;6.09;86.65
68871;BME280;55906;52.278;6.808;2023-01-31T09:03:18;101837.69;;;6.07;87.29
68871;BME280;55906;52.278;6.808;2023-01-31T09:05:45;101848.69;;;6.16;86.80
68871;BME280;55906;52.278;6.808;2023-01-31T09:08:12;101863.38;;;6.14;86.63
68871;BME280;55906;52.278;6.808;2023-01-31T09:10:38;101846.88;;;6.15;86.38
68871;BME280;55906;52.278;6.808;2023-01-31T09:13:06;101839.22;;;6.18;86.54
68871;BME280;55906;52.278;6.808;2023-01-31T09:15:33;101831.47;;;6.20;86.97
68871;BME280;55906;52.278;6.808;2023-01-31T09:17:59;101829.13;;;6.24;86.88
68871;BME280;55906;52.278;6.808;2023-01-31T09:20:26;101849.13;;;6.24;86.81
68871;BME280;55906;52.278;6.808;2023-01-31T09:22:53;101836.16;;;6.25;85.60
68871;BME280;55906;52.278;6.808;2023-01-31T09:25:20;101851.03;;;6.26;86.21
68871;BME280;55906;52.278;6.808;2023-01-31T09:27:46;101832.28;;;6.33;86.09
68871;BME280;55906;52.278;6.808;2023-01-31T09:30:15;101821.38;;;6.40;85.47
68871;BME280;55906;52.278;6.808;2023-01-31T09:32:41;101829.84;;;6.36;85.46
68871;BME280;55906;52.278;6.808;2023-01-31T09:35:10;101850.66;;;6.35;85.64
68871;BME280;55906;52.278;6.808;2023-01-31T09:37:37;101848.25;;;6.38;85.25
68871;BME280;55906;52.278;6.808;2023-01-31T09:40:04;101852.66;;;6.39;85.37
68871;BME280;55906;52.278;6.808;2023-01-31T09:42:34;101838.13;;;6.44;85.74
68871;BME280;55906;52.278;6.808;2023-01-31T09:45:05;101846.44;;;6.37;85.33
68871;BME280;55906;52.278;6.808;2023-01-31T09:47:36;101845.81;;;6.41;85.59
68871;BME280;55906;52.278;6.808;2023-01-31T09:50:06;101850.13;;;6.40;85.45
68871;BME280;55906;52.278;6.808;2023-01-31T09:52:38;101843.44;;;6.46;84.93
68871;BME280;55906;52.278;6.808;2023-01-31T09:55:05;101842.38;;;6.42;84.23
68871;BME280;55906;52.278;6.808;2023-01-31T09:57:40;101837.31;;;6.45;85.48
68871;BME280;55906;52.278;6.808;2023-01-31T10:00:18;101841.81;;;6.48;84.96
68871;BME280;55906;52.278;6.808;2023-01-31T10:03:21;101828.59;;;6.45;85.02
68871;BME280;55906;52.278;6.808;2023-01-31T10:05:51;101812.91;;;6.45;84.91
68871;BME280;55906;52.278;6.808;2023-01-31T10:08:32;101831.47;;;6.49;85.26
68871;BME280;55906;52.278;6.808;2023-01-31T10:11:06;101816.09;;;6.54;84.39
68871;BME280;55906;52.278;6.808;2023-01-31T10:13:40;101812.81;;;6.58;84.91
68871;BME280;55906;52.278;6.808;2023-01-31T10:16:16;101792.72;;;6.57;85.10
68871;BME280;55906;52.278;6.808;2023-01-31T10:18:50;101802.38;;;6.58;84.05
68871;BME280;55906;52.278;6.808;2023-01-31T10:21:21;101801.66;;;6.60;84.35
68871;BME280;55906;52.278;6.808;2023-01-31T10:23:51;101782.69;;;6.64;84.84
68871;BME280;55906;52.278;6.808;2023-01-31T10:26:26;101786.56;;;6.71;83.61
68871;BME280;55906;52.278;6.808;2023-01-31T10:28:57;101786.47;;;6.69;84.25
68871;BME280;55906;52.278;6.808;2023-01-31T10:31:29;101792.13;;;6.77;84.72
68871;BME280;55906;52.278;6.808;2023-01-31T10:34:03;101782.91;;;6.84;83.42
68871;BME280;55906;52.278;6.808;2023-01-31T10:36:33;101774.50;;;6.89;83.42
68871;BME280;55906;52.278;6.808;2023-01-31T10:39:05;101796.25;;;6.88;83.55
68871;BME280;55906;52.278;6.808;2023-01-31T10:41:42;101788.56;;;6.91;83.51
68871;BME280;55906;52.278;6.808;2023-01-31T10:44:20;101798.22;;;6.92;83.26
68871;BME280;55906;52.278;6.808;2023-01-31T10:46:50;101794.94;;;6.96;82.79
68871;BME280;55906;52.278;6.808;2023-01-31T10:49:22;101779.72;;;6.89;83.92
68871;BME280;55906;52.278;6.808;2023-01-31T10:52:00;101770.44;;;6.94;83.79
68871;BME280;55906;52.278;6.808;2023-01-31T10:54:41;101785.31;;;6.95;83.77
68871;BME280;55906;52.278;6.808;2023-01-31T10:57:13;101786.75;;;6.90;83.32
68871;BME280;55906;52.278;6.808;2023-01-31T10:59:43;101778.44;;;6.97;83.46
68871;BME280;55906;52.278;6.808;2023-01-31T11:02:17;101783.84;;;7.00;83.47
68871;BME280;55906;52.278;6.808;2023-01-31T11:04:48;101768.88;;;6.98;83.86
68871;BME280;55906;52.278;6.808;2023-01-31T11:07:16;101762.56;;;6.94;82.92
68871;BME280;55906;52.278;6.808;2023-01-31T11:09:47;101763.91;;;7.02;83.45
68871;BME280;55906;52.278;6.808;2023-01-31T11:12:15;101759.88;;;6.93;83.81
68871;BME280;55906;52.278;6.808;2023-01-31T11:14:42;101783.66;;;6.97;84.03
68871;BME280;55906;52.278;6.808;2023-01-31T11:17:14;101774.44;;;7.04;83.59
68871;BME280;55906;52.278;6.808;2023-01-31T11:19:46;101789.06;;;7.00;83.58
68871;BME280;55906;52.278;6.808;2023-01-31T11:22:21;101775.91;;;6.99;83.14
68871;BME280;55906;52.278;6.808;2023-01-31T11:24:48;101771.56;;;6.99;83.84
68871;BME280;55906;52.278;6.808;2023-01-31T11:27:23;101776.63;;;6.96;83.80
68871;BME280;55906;52.278;6.808;2023-01-31T11:29:51;101767.31;;;7.01;83.79
68871;BME280;55906;52.278;6.808;2023-01-31T11:32:21;101770.75;;;7.00;84.53
68871;BME280;55906;52.278;6.808;2023-01-31T11:34:56;101769.03;;;7.01;84.26
68871;BME280;55906;52.278;6.808;2023-01-31T11:37:24;101773.13;;;6.96;85.61
68871;BME280;55906;52.278;6.808;2023-01-31T11:39:55;101762.56;;;6.94;86.18
68871;BME280;55906;52.278;6.808;2023-01-31T11:42:22;101788.22;;;6.85;86.65
68871;BME280;55906;52.278;6.808;2023-01-31T11:44:57;101738.72;;;6.88;86.81
68871;BME280;55906;52.278;6.808;2023-01-31T11:47:30;101747.13;;;6.83;87.85
68871;BME280;55906;52.278;6.808;2023-01-31T11:49:59;101726.59;;;6.74;88.41
68871;BME280;55906;52.278;6.808;2023-01-31T11:52:28;101723.16;;;6.75;90.11
68871;BME280;55906;52.278;6.808;2023-01-31T11:54:58;101719.09;;;6.80;89.71
68871;BME280;55906;52.278;6.808;2023-01-31T11:57:29;101724.06;;;6.76;91.40
68871;BME280;55906;52.278;6.808;2023-01-31T11:59:57;101718.09;;;6.78;90.96
68871;BME280;55906;52.278;6.808;2023-01-31T12:02:34;101723.09;;;6.73;91.47
68871;BME280;55906;52.278;6.808;2023-01-31T12:05:09;101714.00;;;6.67;91.61
68871;BME280;55906;52.278;6.808;2023-01-31T12:07:42;101713.84;;;6.64;92.19
68871;BME280;55906;52.278;6.808;2023-01-31T12:10:32;101710.50;;;6.66;92.90
68871;BME280;55906;52.278;6.808;2023-01-31T12:13:01;101712.94;;;6.63;92.80
68871;BME280;55906;52.278;6.808;2023-01-31T12:15:28;101706.97;;;6.66;93.67
68871;BME280;55906;52.278;6.808;2023-01-31T12:17:57;101709.75;;;6.69;93.97
68871;BME280;55906;52.278;6.808;2023-01-31T12:20:34;101715.81;;;6.68;94.31
68871;BME280;55906;52.278;6.808;2023-01-31T12:23:15;101719.22;;;6.67;93.53
68871;BME280;55906;52.278;6.808;2023-01-31T12:26:01;101711.22;;;6.64;94.15
68871;BME280;55906;52.278;6.808;2023-01-31T12:28:42;101717.25;;;6.63;95.00
68871;BME280;55906;52.278;6.808;2023-01-31T12:31:27;101703.38;;;6.64;95.05
68871;BME280;55906;52.278;6.808;2023-01-31T12:34:12;101708.28;;;6.74;95.76
68871;BME280;55906;52.278;6.808;2023-01-31T12:37:03;101712.69;;;6.75;95.51
68871;BME280;55906;52.278;6.808;2023-01-31T12:39:45;101712.78;;;6.77;94.94
68871;BME280;55906;52.278;6.808;2023-01-31T12:42:27;101705.19;;;6.81;95.52
68871;BME280;55906;52.278;6.808;2023-01-31T12:45:07;101701.50;;;6.78;95.97
68871;BME280;55906;52.278;6.808;2023-01-31T12:48:08;101716.81;;;6.86;95.69
68871;BME280;55906;52.278;6.808;2023-01-31T12:50:44;101697.84;;;6.90;96.55
68871;BME280;55906;52.278;6.808;2023-01-31T12:53:29;101698.41;;;7.01;95.59
68871;BME280;55906;52.278;6.808;2023-01-31T12:56:06;101689.84;;;7.03;96.12
68871;BME280;55906;52.278;6.808;2023-01-31T12:58:43;101701.34;;;7.07;95.32
68871;BME280;55906;52.278;6.808;2023-01-31T13:01:14;101685.75;;;7.09;96.25
68871;BME280;55906;52.278;6.808;2023-01-31T13:04:08;101674.94;;;7.19;95.97
68871;BME280;55906;52.278;6.808;2023-01-31T13:06:44;101684.66;;;7.21;95.79
68871;BME280;55906;52.278;6.808;2023-01-31T13:09:20;101686.78;;;7.28;95.41
68871;BME280;55906;52.278;6.808;2023-01-31T13:11:52;101682.28;;;7.26;95.77
68871;BME280;55906;52.278;6.808;2023-01-31T13:14:23;101678.28;;;7.32;95.43
68871;BME280;55906;52.278;6.808;2023-01-31T13:16:53;101675.22;;;7.41;95.14
68871;BME280;55906;52.278;6.808;2023-01-31T13:19:24;101668.34;;;7.43;95.46